Time;durP1;ratioP1;P1;durP2;ratioP2;P2;SDS_P1;SDS_P2;PMS_P1;PMS_P2;Temp;Humidity;BMP_temperature;BMP_pressure;BME280_temperature;BME280_humidity;BME280_pressure;Samples;Min_cycle;Max_cycle;Signal;HPM_P1;HPM_P2
2022/01/09 00:00:37;;;;;;;19.67;11.97;;;;;;;8.86;69.92;93806.28;5095061;28;20196;-78
2022/01/09 00:03:06;;;;;;;17.57;11.50;;;;;;;8.69;69.92;93784.16;5112914;28;20247;-79
2022/01/09 00:05:33;;;;;;;17.90;12.93;;;;;;;8.84;69.86;93804.81;5113400;28;20224;-79
2022/01/09 00:08:01;;;;;;;21.53;14.23;;;;;;;8.71;69.85;93792.44;5095236;28;20193;-79
2022/01/09 00:10:29;;;;;;;20.40;13.70;;;;;;;8.82;69.89;93807.53;5113690;28;20220;-78
2022/01/09 00:12:57;;;;;;;19.90;12.83;;;;;;;8.82;69.81;93810.06;5113048;28;20506;-77
2022/01/09 00:15:24;;;;;;;20.27;13.00;;;;;;;8.83;69.85;93815.97;5113482;28;20209;-78
2022/01/09 00:17:52;;;;;;;23.27;14.30;;;;;;;8.78;69.75;93801.91;5113349;28;20189;-79
2022/01/09 00:20:19;;;;;;;22.37;13.70;;;;;;;8.82;69.86;93804.97;5113496;28;20201;-78
2022/01/09 00:22:48;;;;;;;18.83;13.23;;;;;;;8.80;69.94;93805.09;5113059;28;20193;-76
2022/01/09 00:25:17;;;;;;;20.17;13.70;;;;;;;8.62;69.85;93783.16;5113753;28;20664;-77
2022/01/09 00:27:45;;;;;;;22.13;13.27;;;;;;;8.84;69.74;93818.34;5112760;28;20706;-78
2022/01/09 00:30:15;;;;;;;19.87;13.07;;;;;;;8.86;70.07;93810.56;5113400;28;20188;-77
2022/01/09 00:32:43;;;;;;;18.17;12.83;;;;;;;8.83;69.95;93800.66;5112419;28;20221;-77
2022/01/09 00:35:13;;;;;;;20.13;13.53;;;;;;;8.86;69.88;93803.72;5113190;28;20221;-77
2022/01/09 00:37:41;;;;;;;21.97;14.03;;;;;;;8.88;70.01;93804.34;5113053;28;20197;-80
2022/01/09 00:40:10;;;;;;;22.10;14.27;;;;;;;8.71;69.87;93772.84;5113257;28;20199;-77
2022/01/09 00:42:38;;;;;;;22.17;13.57;;;;;;;8.91;69.93;93798.97;5112879;28;20196;-79
2022/01/09 00:45:06;;;;;;;20.23;13.20;;;;;;;8.93;69.89;93796.25;5113284;28;20188;-78
2022/01/09 00:47:34;;;;;;;18.47;13.00;;;;;;;8.94;69.85;93791.03;5112787;28;20199;-76
2022/01/09 00:50:02;;;;;;;20.60;14.20;;;;;;;8.94;69.75;93783.38;5112964;28;20210;-78
2022/01/09 00:52:34;;;;;;;23.53;14.50;;;;;;;8.94;69.74;93774.94;5113547;28;20193;-76
2022/01/09 00:55:00;;;;;;;18.73;13.03;;;;;;;8.86;69.64;93769.78;5099662;28;20446;-78
2022/01/09 00:57:28;;;;;;;22.10;14.53;;;;;;;8.88;69.84;93775.53;5118585;28;20201;-77
2022/01/09 00:59:57;;;;;;;20.83;14.17;;;;;;;9.00;69.77;93787.88;5113357;28;20570;-77
2022/01/09 01:02:24;;;;;;;19.00;13.07;;;;;;;8.91;69.86;93770.13;5077959;28;20663;-77
2022/01/09 01:04:52;;;;;;;22.47;14.60;;;;;;;9.05;69.73;93797.63;5093956;28;20212;-78
2022/01/09 01:07:21;;;;;;;25.10;15.27;;;;;;;8.97;69.81;93777.97;5112052;28;20206;-76
2022/01/09 01:09:49;;;;;;;22.10;14.53;;;;;;;9.07;69.94;93793.19;5112357;28;20181;-76
2022/01/09 01:12:17;;;;;;;23.80;15.00;;;;;;;9.02;69.74;93775.78;5112561;28;20189;-77
2022/01/09 01:14:44;;;;;;;27.20;14.13;;;;;;;9.01;69.88;93773.38;5111670;28;20220;-76
2022/01/09 01:17:13;;;;;;;22.33;13.73;;;;;;;9.12;70.07;93775.66;5111327;28;20193;-77
2022/01/09 01:19:40;;;;;;;23.70;14.40;;;;;;;9.06;69.79;93766.06;5111786;28;20280;-78
2022/01/09 01:22:08;;;;;;;22.90;14.47;;;;;;;9.15;69.76;93772.00;5093630;28;20197;-78
2022/01/09 01:24:37;;;;;;;20.03;14.17;;;;;;;9.02;69.84;93741.81;5111974;28;20215;-79
2022/01/09 01:27:06;;;;;;;21.17;14.03;;;;;;;9.10;69.86;93759.72;5093989;28;20224;-77
2022/01/09 01:29:35;;;;;;;22.57;13.93;;;;;;;8.97;69.86;93737.16;5111662;28;20205;-78
2022/01/09 01:32:02;;;;;;;20.33;14.50;;;;;;;9.18;69.70;93775.06;5111791;28;20750;-78
2022/01/09 01:34:29;;;;;;;22.10;13.43;;;;;;;9.08;69.82;93745.53;5111774;28;20219;-78
2022/01/09 01:36:56;;;;;;;20.07;14.17;;;;;;;9.21;69.76;93768.88;5111665;28;20204;-76
2022/01/09 01:39:25;;;;;;;18.70;12.57;;;;;;;9.22;69.85;93763.59;5111493;28;20201;-78
2022/01/09 01:41:52;;;;;;;22.57;13.40;;;;;;;9.21;69.72;93759.47;5093398;28;20197;-79
2022/01/09 01:44:20;;;;;;;18.60;12.40;;;;;;;9.22;69.73;93757.69;5112454;28;20189;-77
2022/01/09 01:46:48;;;;;;;18.80;12.87;;;;;;;9.23;69.90;93751.63;5111552;28;20188;-76
2022/01/09 01:49:14;;;;;;;21.03;12.87;;;;;;;9.23;69.63;93754.19;5112138;28;20200;-77
2022/01/09 01:51:44;;;;;;;20.67;12.80;;;;;;;9.25;69.68;93748.00;5093308;28;20223;-79
2022/01/09 01:54:11;;;;;;;15.57;11.77;;;;;;;9.08;69.77;93715.72;5111698;28;20235;-77
2022/01/09 01:56:39;;;;;;;19.17;12.53;;;;;;;9.27;69.49;93737.63;5111161;28;20196;-75
2022/01/09 01:59:07;;;;;;;18.17;11.67;;;;;;;9.28;69.93;93734.94;5111134;28;20197;-77
2022/01/09 02:01:37;;;;;;;21.50;13.53;;;;;;;9.21;69.89;93728.84;5093130;28;20238;-78
2022/01/09 02:04:06;;;;;;;16.00;11.97;;;;;;;9.12;69.74;93711.13;5110857;28;20196;-75
2022/01/09 02:06:35;;;;;;;15.80;11.50;;;;;;;9.22;70.00;93715.13;5111211;28;20639;-77
2022/01/09 02:09:02;;;;;;;18.70;11.57;;;;;;;9.28;69.70;93726.47;5110927;28;20193;-75
2022/01/09 02:11:30;;;;;;;19.77;11.43;;;;;;;9.28;69.85;93704.34;5110810;28;20193;-77
2022/01/09 02:13:58;;;;;;;21.00;12.00;;;;;;;9.27;69.96;93704.47;5092840;28;20208;-76
2022/01/09 02:16:26;;;;;;;17.67;12.37;;;;;;;8.93;69.87;93653.50;5111234;28;20196;-78
2022/01/09 02:18:54;;;;;;;16.73;11.50;;;;;;;9.24;70.00;93712.41;5111246;28;20185;-76
2022/01/09 02:21:23;;;;;;;19.77;12.00;;;;;;;8.98;69.93;93666.56;5111316;28;20198;-78
2022/01/09 02:23:50;;;;;;;15.27;11.10;;;;;;;9.19;70.03;93696.78;5111294;28;20216;-77
2022/01/09 02:26:18;;;;;;;18.03;11.87;;;;;;;9.16;70.03;93695.34;5111159;28;20184;-77
2022/01/09 02:28:46;;;;;;;17.33;12.13;;;;;;;9.12;70.28;93683.06;5111120;28;20181;-76
2022/01/09 02:31:13;;;;;;;18.37;11.53;;;;;;;9.11;70.38;93689.09;5118392;28;20189;-77
2022/01/09 02:33:40;;;;;;;16.80;11.70;;;;;;;9.06;70.14;93684.44;5121267;28;20224;-78
2022/01/09 02:36:10;;;;;;;18.30;11.60;;;;;;;9.05;70.32;93687.97;5130300;28;20215;-78
2022/01/09 02:38:39;;;;;;;19.73;12.67;;;;;;;8.88;70.49;93655.69;5126917;28;20193;-78
2022/01/09 02:41:06;;;;;;;18.33;12.37;;;;;;;8.86;70.59;93653.31;5114764;28;20220;-77
2022/01/09 02:43:34;;;;;;;18.77;11.70;;;;;;;8.94;70.49;93665.31;5115736;28;20197;-77
2022/01/09 02:46:09;;;;;;;22.70;13.33;;;;;;;8.84;70.68;93665.41;5126311;28;20185;-76
2022/01/09 02:48:38;;;;;;;21.40;12.60;;;;;;;8.72;70.75;93653.88;5113337;28;20625;-79
2022/01/09 02:51:10;;;;;;;21.50;13.27;;;;;;;8.83;70.64;93668.91;5117089;28;20181;-78
2022/01/09 02:53:40;;;;;;;19.87;12.50;;;;;;;8.82;70.93;93669.06;5115453;28;20188;-79
2022/01/09 02:56:11;;;;;;;19.77;13.00;;;;;;;8.73;70.90;93655.50;5093585;28;20255;-79
2022/01/09 02:58:38;;;;;;;18.50;12.07;;;;;;;8.75;70.92;93666.31;5095605;28;20251;-76
2022/01/09 03:01:07;;;;;;;20.47;12.60;;;;;;;8.74;70.99;93665.53;5110899;28;20652;-77
2022/01/09 03:03:37;;;;;;;22.20;13.53;;;;;;;8.69;71.07;93657.53;5110290;28;20679;-76
2022/01/09 03:06:06;;;;;;;20.47;13.20;;;;;;;8.53;70.93;93629.41;5092570;28;20197;-78
2022/01/09 03:08:33;;;;;;;20.03;12.80;;;;;;;8.46;71.13;93618.22;5110727;28;20193;-77
2022/01/09 03:11:03;;;;;;;22.00;14.27;;;;;;;8.59;71.20;93628.00;5110353;28;20281;-79
2022/01/09 03:13:32;;;;;;;20.07;12.33;;;;;;;8.67;71.40;93640.78;5110249;28;20197;-77
2022/01/09 03:15:59;;;;;;;20.60;13.47;;;;;;;8.60;71.37;93629.63;5110223;28;20256;-75
2022/01/09 03:18:27;;;;;;;19.60;13.80;;;;;;;8.66;71.21;93640.00;5092535;28;20196;-77
2022/01/09 03:20:55;;;;;;;20.77;12.77;;;;;;;8.66;71.26;93642.53;5110766;28;20203;-76
2022/01/09 03:23:22;;;;;;;22.27;14.00;;;;;;;8.49;71.38;93621.28;5076149;28;20204;-77
2022/01/09 03:25:50;;;;;;;22.87;14.10;;;;;;;8.63;71.38;93639.50;5092476;28;20566;-77
2022/01/09 03:28:19;;;;;;;24.87;14.97;;;;;;;8.56;71.40;93636.75;5092677;28;20200;-78
2022/01/09 03:30:46;;;;;;;24.00;14.47;;;;;;;8.62;71.47;93643.00;5111009;28;20189;-76
2022/01/09 03:33:13;;;;;;;25.87;14.27;;;;;;;8.55;71.47;93632.63;5092346;28;20225;-77
2022/01/09 03:35:40;;;;;;;23.13;13.93;;;;;;;8.63;71.57;93634.41;5110047;28;20238;-78
2022/01/09 03:38:07;;;;;;;22.80;14.43;;;;;;;8.59;71.65;93623.69;5110847;28;20200;-78
2022/01/09 03:40:35;;;;;;;24.23;14.47;;;;;;;8.61;71.71;93629.47;5114317;28;20194;-77
2022/01/09 03:43:02;;;;;;;27.13;14.63;;;;;;;8.61;71.77;93633.75;5095613;28;20318;-77
2022/01/09 03:45:31;;;;;;;22.83;14.77;;;;;;;8.62;71.82;93630.25;5096372;28;20662;-80
2022/01/09 03:47:59;;;;;;;25.67;15.47;;;;;;;8.39;71.82;93597.66;5114081;28;20193;-77
2022/01/09 03:50:29;;;;;;;23.40;14.53;;;;;;;8.48;71.90;93608.69;5114886;28;20663;-78
2022/01/09 03:52:56;;;;;;;22.10;14.23;;;;;;;8.43;71.86;93593.88;5114887;28;20200;-79
2022/01/09 03:55:24;;;;;;;26.10;15.23;;;;;;;8.62;71.90;93627.69;5114421;28;20224;-76
2022/01/09 03:57:51;;;;;;;26.57;15.40;;;;;;;8.56;71.94;93613.84;5113771;28;20196;-77
2022/01/09 04:00:20;;;;;;;24.33;14.40;;;;;;;8.62;71.94;93618.31;5114103;28;20540;-76
2022/01/09 04:02:49;;;;;;;24.50;14.43;;;;;;;8.64;71.87;93620.72;5113876;28;20197;-78
2022/01/09 04:05:16;;;;;;;20.93;13.67;;;;;;;8.58;71.87;93600.94;5114049;28;20219;-78
2022/01/09 04:07:43;;;;;;;21.70;14.93;;;;;;;8.61;71.77;93609.06;5114176;28;20208;-77
2022/01/09 04:10:10;;;;;;;22.00;13.20;;;;;;;8.62;71.87;93618.31;5112967;28;20193;-78
2022/01/09 04:12:47;;;;;;;23.27;14.10;;;;;;;8.61;71.82;93623.56;5113530;28;20189;-77
2022/01/09 04:15:16;;;;;;;21.47;13.47;;;;;;;8.58;71.87;93618.75;5113563;28;20692;-78
2022/01/09 04:17:51;;;;;;;20.77;13.97;;;;;;;8.54;71.87;93613.97;5113722;28;20189;-78
2022/01/09 04:20:20;;;;;;;21.03;13.33;;;;;;;8.53;71.81;93617.47;5113391;28;20181;-78
2022/01/09 04:22:48;;;;;;;21.50;13.97;;;;;;;8.52;71.79;93617.63;5113344;28;20201;-78
2022/01/09 04:25:15;;;;;;;23.03;13.93;;;;;;;8.50;71.92;93606.78;5113100;28;20196;-77
2022/01/09 04:27:42;;;;;;;19.67;12.77;;;;;;;8.38;71.88;93593.53;5113572;28;20193;-79
2022/01/09 04:30:10;;;;;;;17.83;12.70;;;;;;;8.36;71.92;93584.41;5113518;28;20254;-75
2022/01/09 04:32:38;;;;;;;18.03;12.13;;;;;;;8.48;72.20;93611.25;5112896;28;20282;-77
2022/01/09 04:35:06;;;;;;;17.43;12.10;;;;;;;8.43;72.13;93593.88;5112784;28;20232;-77
2022/01/09 04:37:36;;;;;;;22.17;13.17;;;;;;;8.49;72.10;93607.72;5112354;28;20197;-76
2022/01/09 04:40:06;;;;;;;17.70;13.27;;;;;;;8.38;72.03;93592.72;5112614;28;20659;-75
2022/01/09 04:42:39;;;;;;;18.43;12.10;;;;;;;8.04;71.97;93540.00;5112296;28;20201;-76
2022/01/09 04:45:08;;;;;;;17.13;11.80;;;;;;;8.44;71.99;93603.09;5112939;28;20202;-76
2022/01/09 04:47:35;;;;;;;18.27;12.80;;;;;;;8.49;72.09;93602.63;5094008;28;20204;-76
2022/01/09 04:50:02;;;;;;;19.07;12.27;;;;;;;8.55;71.90;93612.25;5112643;28;20182;-75
2022/01/09 04:52:33;;;;;;;17.97;12.77;;;;;;;8.56;71.72;93613.84;5112767;28;20283;-76
2022/01/09 04:55:01;;;;;;;17.43;12.47;;;;;;;8.56;71.80;93613.03;5115774;28;20258;-77
2022/01/09 04:57:28;;;;;;;18.13;11.37;;;;;;;8.63;71.49;93624.19;5120719;28;20203;-76
2022/01/09 04:59:55;;;;;;;20.23;13.10;;;;;;;8.47;71.56;93592.63;5117314;28;20196;-76
2022/01/09 05:02:22;;;;;;;13.80;11.20;;;;;;;8.12;71.53;93534.94;5112529;28;20203;-76
2022/01/09 05:04:49;;;;;;;20.07;12.20;;;;;;;8.70;71.16;93618.34;5112748;28;20184;-75
2022/01/09 05:07:16;;;;;;;17.30;12.57;;;;;;;8.74;71.41;93626.50;5112401;28;20182;-76
2022/01/09 05:09:42;;;;;;;17.53;12.13;;;;;;;8.75;71.25;93633.97;5112519;28;20197;-76
2022/01/09 05:12:11;;;;;;;18.40;11.83;;;;;;;8.76;71.25;93624.56;5112253;28;20189;-76
2022/01/09 05:14:38;;;;;;;18.00;12.97;;;;;;;8.78;71.38;93620.13;5112396;28;20196;-75
2022/01/09 05:17:05;;;;;;;20.27;12.67;;;;;;;8.79;71.21;93612.31;5112130;28;20298;-76
2022/01/09 05:19:34;;;;;;;18.17;12.40;;;;;;;8.79;71.08;93612.31;5112700;28;20184;-76
2022/01/09 05:22:01;;;;;;;21.13;12.87;;;;;;;8.82;71.12;93618.09;5112156;28;20188;-76
2022/01/09 05:24:28;;;;;;;18.83;12.57;;;;;;;8.82;71.03;93606.13;5112524;28;20181;-77
2022/01/09 05:26:56;;;;;;;26.20;13.93;;;;;;;8.84;70.97;93604.22;5112252;28;20192;-75
2022/01/09 05:29:24;;;;;;;21.50;13.13;;;;;;;8.84;70.95;93600.88;5111825;28;20292;-75
2022/01/09 05:31:52;;;;;;;19.87;13.00;;;;;;;8.87;70.98;93603.13;5111370;28;20312;-76
2022/01/09 05:34:19;;;;;;;18.57;12.10;;;;;;;8.88;71.26;93604.72;5111691;28;20670;-76
2022/01/09 05:36:47;;;;;;;19.00;12.67;;;;;;;8.84;71.06;93598.31;5111840;28;20223;-76
2022/01/09 05:39:14;;;;;;;20.17;12.97;;;;;;;8.88;71.26;93591.97;5111182;28;20200;-77
2022/01/09 05:41:43;;;;;;;18.73;12.87;;;;;;;8.89;71.31;93594.34;5111439;28;20189;-77
2022/01/09 05:44:11;;;;;;;20.57;14.07;;;;;;;8.90;71.08;93595.19;5092821;28;20200;-77
2022/01/09 05:46:39;;;;;;;21.63;12.90;;;;;;;8.62;71.22;93559.69;5111295;28;20192;-76
2022/01/09 05:49:06;;;;;;;19.83;13.77;;;;;;;8.89;71.44;93603.75;5111236;28;20184;-76
2022/01/09 05:51:33;;;;;;;24.17;13.63;;;;;;;8.88;71.26;93586.88;5111703;28;20199;-78
2022/01/09 05:53:59;;;;;;;19.33;12.30;;;;;;;8.89;71.34;93588.47;5110998;28;20204;-77
2022/01/09 05:56:27;;;;;;;20.30;12.30;;;;;;;8.89;71.35;93589.25;5111386;28;20726;-76
2022/01/09 05:58:54;;;;;;;17.10;12.63;;;;;;;8.91;71.43;93595.00;5111271;28;20196;-77
2022/01/09 06:01:20;;;;;;;24.67;14.63;;;;;;;8.91;71.12;93592.47;5110932;28;20185;-76
2022/01/09 06:03:49;;;;;;;20.23;13.60;;;;;;;8.89;71.32;93581.59;5111381;28;20189;-77
2022/01/09 06:06:16;;;;;;;18.83;12.97;;;;;;;8.94;71.33;93586.28;5111396;28;20197;-77
2022/01/09 06:08:43;;;;;;;17.73;13.37;;;;;;;8.96;71.41;93589.44;5111184;28;20189;-77
2022/01/09 06:11:12;;;;;;;18.10;12.93;;;;;;;8.72;71.36;93546.81;5092800;28;20191;-76
2022/01/09 06:13:39;;;;;;;20.80;14.33;;;;;;;9.01;71.32;93587.22;5111493;28;20218;-77
2022/01/09 06:16:06;;;;;;;23.37;13.07;;;;;;;9.05;71.28;93589.31;5110269;28;20248;-77
2022/01/09 06:18:34;;;;;;;19.80;13.20;;;;;;;8.63;71.23;93512.06;5111162;28;20223;-78
2022/01/09 06:21:05;;;;;;;19.10;14.33;;;;;;;9.05;71.28;93560.47;5111249;28;20829;-76
2022/01/09 06:23:32;;;;;;;17.97;12.70;;;;;;;9.19;70.87;93577.69;5111021;28;20211;-78
2022/01/09 06:25:59;;;;;;;19.53;13.10;;;;;;;9.25;70.79;93574.53;5111161;28;20197;-77
2022/01/09 06:28:26;;;;;;;20.60;13.67;;;;;;;9.26;70.80;93560.81;5111128;28;20193;-78
2022/01/09 06:30:53;;;;;;;17.83;13.20;;;;;;;9.41;70.70;93578.03;5111205;28;20197;-77
2022/01/09 06:33:20;;;;;;;20.07;14.20;;;;;;;9.45;70.50;93571.69;5111304;28;20235;-76
2022/01/09 06:35:47;;;;;;;16.77;12.63;;;;;;;9.60;70.44;93582.06;5111106;28;20749;-76
2022/01/09 06:38:15;;;;;;;16.27;12.50;;;;;;;9.72;70.01;93576.47;5111480;28;20189;-79
2022/01/09 06:40:42;;;;;;;18.73;13.67;;;;;;;9.57;69.79;93532.13;5110829;28;20200;-76
2022/01/09 06:43:09;;;;;;;18.57;12.13;;;;;;;10.18;69.71;93576.75;5110667;28;20188;-76
2022/01/09 06:45:36;;;;;;;22.10;11.47;;;;;;;10.35;69.40;93551.97;5110637;28;20574;-76
2022/01/09 06:48:03;;;;;;;19.97;12.80;;;;;;;10.72;69.49;93538.59;5110459;28;20185;-77
2022/01/09 06:50:30;;;;;;;17.07;11.47;;;;;;;11.29;69.28;93561.28;5111338;28;20195;-78
2022/01/09 06:52:59;;;;;;;17.93;11.70;;;;;;;11.60;68.87;93554.53;5110602;28;20216;-76
2022/01/09 06:55:29;;;;;;;16.53;11.17;;;;;;;12.10;68.13;93566.00;5110772;28;20574;-76
2022/01/09 06:57:59;;;;;;;15.63;10.43;;;;;;;12.46;67.44;93576.34;5110434;28;20201;-76
2022/01/09 07:00:29;;;;;;;12.87;9.50;;;;;;;12.46;66.26;93548.94;5110354;28;20242;-76
2022/01/09 07:02:58;;;;;;;12.43;10.20;;;;;;;12.64;65.71;93556.28;5110081;28;20208;-78
2022/01/09 07:05:37;;;;;;;11.40;9.40;;;;;;;12.70;64.60;93559.91;5092466;28;20207;-76
2022/01/09 07:08:07;;;;;;;14.20;9.37;;;;;;;12.89;64.29;93584.22;5110302;28;20189;-75
2022/01/09 07:10:36;;;;;;;12.00;9.67;;;;;;;12.88;63.73;93591.13;5092436;28;20196;-76
2022/01/09 07:13:05;;;;;;;11.77;8.50;;;;;;;12.87;63.19;93586.19;5109894;28;20589;-77
2022/01/09 07:15:32;;;;;;;10.70;8.07;;;;;;;12.80;62.83;93566.34;5096246;28;20579;-77
2022/01/09 07:17:58;;;;;;;11.50;8.77;;;;;;;13.03;62.36;93591.88;5114379;28;20177;-80
2022/01/09 07:20:25;;;;;;;9.87;7.87;;;;;;;13.16;61.90;93587.88;5114485;28;20190;-79
2022/01/09 07:22:53;;;;;;;9.40;7.73;;;;;;;13.22;61.50;93587.19;5096301;28;20556;-76
2022/01/09 07:25:21;;;;;;;9.27;7.33;;;;;;;13.37;61.17;93600.00;5096254;28;20185;-76
2022/01/09 07:27:50;;;;;;;11.87;8.57;;;;;;;13.38;61.06;93574.13;5113660;28;20185;-78
2022/01/09 07:30:18;;;;;;;11.60;7.50;;;;;;;13.56;60.81;93578.88;5095878;28;20197;-78
2022/01/09 07:32:45;;;;;;;8.20;7.40;;;;;;;13.57;60.47;93570.19;5095184;28;20320;-77
2022/01/09 07:35:12;;;;;;;8.10;7.00;;;;;;;13.73;60.22;93597.38;5114041;28;20265;-78
2022/01/09 07:37:39;;;;;;;10.53;7.57;;;;;;;13.71;60.04;93597.56;5113089;28;20224;-78
2022/01/09 07:40:08;;;;;;;10.17;7.37;;;;;;;13.71;59.89;93597.56;5095964;28;20781;-77
2022/01/09 07:42:35;;;;;;;8.23;6.43;;;;;;;13.74;59.56;93591.28;5113793;28;20222;-75
2022/01/09 07:45:06;;;;;;;11.30;6.87;;;;;;;13.75;59.29;93588.50;5113027;28;20200;-78
2022/01/09 07:47:33;;;;;;;8.23;6.27;;;;;;;13.75;58.84;93588.50;5113843;28;20197;-76
2022/01/09 07:50:00;;;;;;;9.03;6.10;;;;;;;13.50;58.61;93548.75;5113678;28;20185;-77
2022/01/09 07:52:28;;;;;;;6.87;5.53;;;;;;;13.71;58.56;93589.84;5113693;28;20288;-76
2022/01/09 07:54:56;;;;;;;6.23;5.50;;;;;;;13.69;58.48;93578.19;5113470;28;20200;-76
2022/01/09 07:57:30;;;;;;;6.70;5.47;;;;;;;13.61;58.22;93561.13;5094772;28;20221;-76
2022/01/09 07:59:58;;;;;;;6.73;5.50;;;;;;;13.14;58.13;93497.44;5113349;28;20197;-76
2022/01/09 08:02:35;;;;;;;6.17;5.30;;;;;;;13.63;57.96;93568.63;5095162;28;20193;-76
2022/01/09 08:05:03;;;;;;;7.40;5.50;;;;;;;13.77;57.74;93580.63;5113089;28;20640;-77
2022/01/09 08:07:30;;;;;;;6.13;5.53;;;;;;;13.71;57.29;93569.31;5095211;28;20189;-77
2022/01/09 08:09:58;;;;;;;6.67;5.80;;;;;;;13.84;57.32;93578.91;5112447;28;20243;-79
2022/01/09 08:12:28;;;;;;;7.53;5.80;;;;;;;13.93;57.17;93564.16;5113234;28;20233;-77
2022/01/09 08:14:58;;;;;;;5.73;5.13;;;;;;;13.86;56.69;93537.59;5112728;28;20189;-79
2022/01/09 08:17:27;;;;;;;7.80;5.43;;;;;;;13.95;56.84;93559.63;5112862;28;20228;-78
2022/01/09 08:19:56;;;;;;;8.87;6.57;;;;;;;13.93;56.66;93546.94;5095025;28;20189;-79
2022/01/09 08:22:29;;;;;;;7.17;6.10;;;;;;;13.94;56.55;93550.31;5112999;28;20227;-78
2022/01/09 08:24:57;;;;;;;6.37;5.50;;;;;;;13.94;56.56;93555.44;5112177;28;20200;-77
2022/01/09 08:27:25;;;;;;;8.53;6.03;;;;;;;13.93;56.50;93551.31;5112598;28;20193;-81
2022/01/09 08:29:52;;;;;;;6.73;5.93;;;;;;;13.92;56.46;93558.22;5112309;28;20545;-79
2022/01/09 08:32:19;;;;;;;7.93;5.90;;;;;;;13.76;56.42;93517.38;5112825;28;20232;-79
2022/01/09 08:34:49;;;;;;;8.07;6.00;;;;;;;13.83;56.30;93520.00;5112714;28;20181;-77
2022/01/09 08:37:16;;;;;;;8.27;5.83;;;;;;;13.89;56.24;93542.38;5112983;28;20220;-77
2022/01/09 08:39:44;;;;;;;8.30;6.07;;;;;;;13.83;56.46;93531.06;5077764;28;20587;-76
2022/01/09 08:42:11;;;;;;;6.20;5.30;;;;;;;13.85;56.33;93538.59;5112643;28;20227;-77
2022/01/09 08:44:38;;;;;;;7.90;5.63;;;;;;;13.78;56.38;93523.91;5112220;28;20181;-78
2022/01/09 08:47:06;;;;;;;7.70;6.10;;;;;;;13.65;56.22;93507.63;5112749;28;20189;-74
2022/01/09 08:49:33;;;;;;;12.23;6.53;;;;;;;13.67;56.31;93516.69;5112485;28;20181;-75
2022/01/09 08:52:01;;;;;;;4.63;3.20;;;;;;;14.07;90.27;93511.84;5112548;28;20581;-76
2022/01/09 08:54:28;;;;;;;8.07;3.97;;;;;;;14.79;86.89;93531.25;5112506;28;20191;-75
2022/01/09 08:56:55;;;;;;;3.47;3.00;;;;;;;15.24;82.16;93500.69;5114360;28;20221;-78
2022/01/09 08:59:23;;;;;;;10.27;3.97;;;;;;;15.94;79.30;93516.66;5113129;28;20837;-76
2022/01/09 09:01:50;;;;;;;4.87;3.67;;;;;;;16.50;76.25;93526.50;5112476;28;20193;-78
2022/01/09 09:04:17;;;;;;;5.83;3.83;;;;;;;16.99;72.69;93520.78;5112324;28;20676;-77
2022/01/09 09:06:44;;;;;;;8.77;3.83;;;;;;;17.46;71.68;93516.16;5112068;28;20580;-78
2022/01/09 09:09:13;;;;;;;5.30;3.40;;;;;;;17.64;69.91;93466.31;5111851;28;20196;-76
2022/01/09 09:11:40;;;;;;;6.80;3.33;;;;;;;18.27;68.26;93502.44;5112350;28;20219;-78
2022/01/09 09:14:07;;;;;;;5.03;3.03;;;;;;;18.62;67.35;93501.88;5112408;28;20188;-77
2022/01/09 09:16:34;;;;;;;4.30;3.20;;;;;;;18.93;65.73;93500.94;5112036;28;20229;-78
2022/01/09 09:19:01;;;;;;;6.73;4.03;;;;;;;19.20;64.19;93495.41;5112454;28;20207;-77
2022/01/09 09:21:28;;;;;;;5.40;3.40;;;;;;;19.41;62.94;93486.34;5111832;28;20189;-78
2022/01/09 09:23:54;;;;;;;6.23;3.30;;;;;;;19.54;61.95;93486.16;5112265;28;20188;-76
2022/01/09 09:26:23;;;;;;;4.87;3.57;;;;;;;19.60;61.70;93472.28;5111861;28;20189;-78
2022/01/09 09:28:49;;;;;;;6.20;3.70;;;;;;;19.58;61.08;93474.31;5112575;28;20692;-79
2022/01/09 09:31:17;;;;;;;5.20;3.73;;;;;;;19.41;58.79;93470.78;5113660;28;20196;-81
2022/01/09 09:33:44;;;;;;;4.83;3.97;;;;;;;19.01;56.53;93466.16;5113194;28;20252;-79
2022/01/09 09:36:11;;;;;;;3.87;3.47;;;;;;;18.37;54.40;93420.91;5094819;28;20220;-83
2022/01/09 09:38:38;;;;;;;6.53;5.00;;;;;;;18.56;64.55;93463.88;5111764;28;20588;-77
2022/01/09 09:41:04;;;;;;;6.77;5.07;;;;;;;18.55;64.29;93428.63;5112011;28;20192;-78
2022/01/09 09:43:33;;;;;;;6.33;4.27;;;;;;;18.55;60.93;93424.25;5112984;28;20177;-80
2022/01/09 09:46:02;;;;;;;6.43;4.60;;;;;;;18.61;58.45;93445.91;5112087;28;20189;-82
2022/01/09 09:48:29;;;;;;;5.03;4.53;;;;;;;18.13;56.96;93407.78;5112859;28;20250;-81
2022/01/09 09:50:57;;;;;;;5.37;4.43;;;;;;;18.11;55.42;93432.31;5118599;28;20189;-79
2022/01/09 09:53:24;;;;;;;6.33;4.60;;;;;;;17.20;54.42;93328.50;5113631;28;20189;-79
2022/01/09 09:55:53;;;;;;;6.40;5.23;;;;;;;17.60;53.73;93425.59;5112886;28;20184;-82
2022/01/09 09:58:22;;;;;;;4.90;4.17;;;;;;;17.05;53.02;93390.84;5106179;28;20696;-79
2022/01/09 10:01:03;;;;;;;5.87;4.37;;;;;;;17.06;52.42;93435.53;5071100;28;20239;-80
2022/01/09 10:03:31;;;;;;;4.90;4.20;;;;;;;16.87;52.47;93432.03;5089759;28;20185;-78
2022/01/09 10:05:58;;;;;;;4.83;4.03;;;;;;;16.73;52.25;93421.00;5089997;28;20182;-77
2022/01/09 10:08:37;;;;;;;6.23;4.90;;;;;;;16.53;51.76;93425.41;5089507;28;20190;-78
2022/01/09 10:11:14;;;;;;;5.87;4.37;;;;;;;16.29;51.88;93414.00;5088965;28;20205;-78
2022/01/09 10:13:41;;;;;;;5.07;4.23;;;;;;;15.69;52.15;93360.03;5090644;28;20196;-77
2022/01/09 10:16:11;;;;;;;5.43;4.30;;;;;;;15.75;51.99;93386.78;5092519;28;20200;-80
2022/01/09 10:18:49;;;;;;;5.63;4.63;;;;;;;15.79;52.11;93429.19;5089497;28;20741;-79
2022/01/09 10:21:32;;;;;;;6.23;5.63;;;;;;;15.61;52.27;93434.16;5088676;28;20204;-79
2022/01/09 10:24:05;;;;;;;5.33;4.53;;;;;;;15.35;52.39;93415.13;5067606;28;20197;-77
2022/01/09 10:26:36;;;;;;;5.37;4.80;;;;;;;15.26;52.67;93421.47;5103752;28;20197;-77
2022/01/09 10:29:15;;;;;;;8.37;4.83;;;;;;;15.17;52.78;93426.03;5087404;28;20198;-78
2022/01/09 10:32:01;;;;;;;5.47;4.57;;;;;;;15.13;52.86;93416.31;5090318;27;20216;-81
2022/01/09 10:34:28;;;;;;;6.07;4.80;;;;;;;15.14;52.86;93402.44;5105038;28;20741;-79
2022/01/09 10:36:55;;;;;;;7.63;4.57;;;;;;;15.14;52.97;93394.72;5104643;28;20212;-78
2022/01/09 10:39:30;;;;;;;7.37;5.33;;;;;;;15.06;53.16;93393.13;5089777;28;20185;-78
2022/01/09 10:41:59;;;;;;;5.03;4.33;;;;;;;15.09;53.07;93391.94;5109608;28;20206;-78
2022/01/09 10:44:30;;;;;;;5.37;4.87;;;;;;;14.87;53.23;93352.72;5108554;28;20574;-78
2022/01/09 10:46:59;;;;;;;6.37;5.20;;;;;;;15.21;53.17;93386.00;5107840;28;20702;-82
2022/01/09 10:49:38;;;;;;;5.73;5.07;;;;;;;15.26;53.22;93386.19;5111189;28;20698;-78
2022/01/09 10:52:17;;;;;;;6.97;5.20;;;;;;;15.24;53.29;93385.63;5114434;28;20249;-77
2022/01/09 10:54:46;;;;;;;7.30;5.93;;;;;;;15.19;53.28;93387.97;5114949;28;20185;-76
2022/01/09 10:57:14;;;;;;;6.73;5.37;;;;;;;15.03;53.54;93365.22;5115189;28;20369;-78
2022/01/09 10:59:41;;;;;;;9.23;5.60;;;;;;;15.12;53.74;93392.34;5116079;28;20200;-76
2022/01/09 11:02:10;;;;;;;8.17;5.87;;;;;;;15.11;53.75;93385.63;5115001;28;20208;-79
2022/01/09 11:04:38;;;;;;;6.00;5.17;;;;;;;15.10;53.49;93381.44;5114761;28;20208;-79
2022/01/09 11:07:07;;;;;;;7.30;5.80;;;;;;;15.04;53.63;93375.31;5114339;28;20197;-81
2022/01/09 11:09:35;;;;;;;8.40;5.80;;;;;;;15.09;53.71;93377.28;5114642;28;20208;-80
2022/01/09 11:12:03;;;;;;;7.30;6.07;;;;;;;15.10;53.76;93385.78;5114501;28;20284;-77
2022/01/09 11:14:35;;;;;;;7.20;6.03;;;;;;;14.73;53.77;93319.25;5114786;28;20275;-81
2022/01/09 11:17:05;;;;;;;7.67;5.90;;;;;;;15.17;53.61;93366.78;5115256;28;20217;-80
2022/01/09 11:19:33;;;;;;;6.97;5.60;;;;;;;15.02;53.45;93332.72;5114642;28;20193;-79
2022/01/09 11:22:05;;;;;;;7.80;5.97;;;;;;;15.19;53.48;93362.22;5114276;28;20193;-79
2022/01/09 11:25:02;;;;;;;7.17;5.37;;;;;;;15.25;53.45;93358.88;5114617;28;20243;-80
2022/01/09 11:27:51;;;;;;;6.87;5.80;;;;;;;15.30;53.50;93358.28;5114179;28;20193;-80
2022/01/09 11:30:21;;;;;;;8.23;5.67;;;;;;;15.39;53.15;93364.00;5114331;28;20682;-78
2022/01/09 11:32:58;;;;;;;8.80;6.40;;;;;;;15.35;53.13;93349.94;5114961;28;20903;-82